Chemtrans Mabuhay — A8XX9 — position and weather

sailwx.info

Track history (hours):
 
Tides and Currents Weather Stations Pressure Air Temp Water Temp Dewpoint Dewpoint Depression Visibility Wind Speed Wind Dir Waves Ship Positions

Chemtrans Mabuhay

Last reported at 2015-Jul-28 02:24 UTC. Time now 2015-Jul-28 05:49 UTC.
Position N 27°25' W 122°32'.

Length 140 m; draft 6.5 m.

Type: Ship. MMSI: 636092180.

Date/timePositionNaut miles runAvg speedWind from/ knotsBaromVisibWave heightAir tempDewpointWater temp
2015-Jul-28 02:24N 27°25' W 122°32'1113.2
2015-Jul-28 01:33N 27°20' W 122°21'3113.2
2015-Jul-27 23:13N 27°06' W 121°50'1113.4
2015-Jul-27 22:22N 27°01' W 121°39'2413.0
2015-Jul-27 20:33N 26°50' W 121°15'11812.9
2015-Jul-27 11:26N 25°56' W 119°18'1113.1
2015-Jul-27 10:33N 25°51' W 119°07'1513.2
2015-Jul-27 09:25N 25°45' W 118°52'6513.3
2015-Jul-27 04:31N 25°15' W 117°48'1413.5
2015-Jul-27 03:29N 25°09' W 117°34'9413.5
2015-Jul-26 20:33N 24°26' W 116°02'  
Track history (hours):
 
Tides and Currents Weather Stations Pressure Air Temp Water Temp Dewpoint Dewpoint Depression Visibility Wind Speed Wind Dir Waves Ship Positions

Chemtrans Mabuhay

Last reported at 2015-Jul-28 02:24 UTC. Time now 2015-Jul-28 05:49 UTC.
Position N 27°25' W 122°32'.

Length 140 m; draft 6.5 m.

Type: Ship. MMSI: 636092180.

Date/timePositionNaut miles runAvg speedWind from/ knotsBaromVisibWave heightAir tempDewpointWater temp
2015-Jul-28 02:24N 27°25' W 122°32'1113.2
2015-Jul-28 01:33N 27°20' W 122°21'3113.2
2015-Jul-27 23:13N 27°06' W 121°50'1113.4
2015-Jul-27 22:22N 27°01' W 121°39'2413.0
2015-Jul-27 20:33N 26°50' W 121°15'11812.9
2015-Jul-27 11:26N 25°56' W 119°18'1113.1
2015-Jul-27 10:33N 25°51' W 119°07'1513.2
2015-Jul-27 09:25N 25°45' W 118°52'6513.3
2015-Jul-27 04:31N 25°15' W 117°48'1413.5
2015-Jul-27 03:29N 25°09' W 117°34'9413.5
2015-Jul-26 20:33N 24°26' W 116°02'  

Dump ship's entire track history